Time;durP1;ratioP1;P1;durP2;ratioP2;P2;SDS_P1;SDS_P2;PMS_P1;PMS_P2;Temp;Humidity;BMP_temperature;BMP_pressure;BME280_temperature;BME280_humidity;BME280_pressure;Samples;Min_cycle;Max_cycle;Signal;HPM_P1;HPM_P2
2021/09/12 00:01:52;;;;;;;;;;;13.90;99.90;;;;;;8295668;28;19909;-64
2021/09/12 00:05:52;;;;;;;;;;;13.90;99.90;;;;;;8295260;28;19905;-64
2021/09/12 00:09:53;;;;;;;;;;;14.00;99.90;;;;;;8294103;28;20400;-64
2021/09/12 00:13:53;;;;;;;;;;;14.20;99.90;;;;;;8295166;28;19944;-64
2021/09/12 00:17:54;;;;;;;;;;;14.10;99.90;;;;;;8294770;28;19913;-64
2021/09/12 00:21:54;;;;;;;;;;;13.90;99.90;;;;;;8294960;28;19906;-64
2021/09/12 00:25:54;;;;;;;;;;;13.80;99.90;;;;;;8294744;28;20345;-64
2021/09/12 00:29:56;;;;;;;;;;;13.80;99.90;;;;;;8293138;28;19932;-64
2021/09/12 00:33:57;;;;;;;;;;;13.90;99.90;;;;;;8294310;28;19948;-64
2021/09/12 00:37:57;;;;;;;;;;;13.90;99.90;;;;;;8294052;28;20358;-64
2021/09/12 00:41:58;;;;;;;;;;;13.80;99.90;;;;;;8294387;28;19928;-64
2021/09/12 00:45:58;;;;;;;;;;;13.60;99.90;;;;;;8293602;28;19948;-64
2021/09/12 00:49:59;;;;;;;;;;;13.90;99.90;;;;;;8293513;28;20161;-64
2021/09/12 00:54:01;;;;;;;;;;;13.70;99.90;;;;;;8293558;28;19905;-64
2021/09/12 00:58:01;;;;;;;;;;;13.40;99.90;;;;;;8293690;28;19905;-64
2021/09/12 01:02:04;;;;;;;;;;;13.40;99.90;;;;;;8293883;28;19928;-63
2021/09/12 01:06:04;;;;;;;;;;;13.40;99.90;;;;;;8292290;28;19928;-64
2021/09/12 01:10:06;;;;;;;;;;;13.20;99.90;;;;;;8293457;28;20000;-64
2021/09/12 01:14:07;;;;;;;;;;;13.10;99.90;;;;;;8292282;28;19925;-64
2021/09/12 01:18:07;;;;;;;;;;;13.00;99.90;;;;;;8293064;28;19920;-64
2021/09/12 01:22:08;;;;;;;;;;;13.10;99.90;;;;;;8293483;28;19913;-64
2021/09/12 01:26:08;;;;;;;;;;;13.00;99.90;;;;;;8293543;28;19905;-64
2021/09/12 01:30:09;;;;;;;;;;;13.00;99.90;;;;;;8293376;28;19910;-64
2021/09/12 01:34:10;;;;;;;;;;;13.20;99.90;;;;;;8293158;28;19984;-64
2021/09/12 01:38:10;;;;;;;;;;;12.90;99.90;;;;;;8293052;28;19911;-64
2021/09/12 01:42:11;;;;;;;;;;;12.90;99.90;;;;;;8293079;28;19996;-64
2021/09/12 01:46:11;;;;;;;;;;;12.70;99.90;;;;;;8291655;28;19916;-64
2021/09/12 01:50:14;;;;;;;;;;;12.50;99.90;;;;;;8292472;28;19913;-64
2021/09/12 01:54:14;;;;;;;;;;;12.60;99.90;;;;;;8292597;28;19911;-64
2021/09/12 01:58:15;;;;;;;;;;;12.70;99.90;;;;;;8292758;28;20293;-63
2021/09/12 02:02:15;;;;;;;;;;;12.60;99.90;;;;;;8292794;28;20289;-64
2021/09/12 02:06:16;;;;;;;;;;;12.70;99.90;;;;;;8292664;28;20444;-64
2021/09/12 02:10:16;;;;;;;;;;;12.60;99.90;;;;;;8292717;28;20393;-64
2021/09/12 02:14:17;;;;;;;;;;;12.50;99.90;;;;;;8292517;28;19955;-64
2021/09/12 02:18:17;;;;;;;;;;;12.60;99.90;;;;;;8292294;28;20486;-64
2021/09/12 02:22:18;;;;;;;;;;;12.50;99.90;;;;;;8296561;28;19909;-64
2021/09/12 02:26:18;;;;;;;;;;;12.80;99.90;;;;;;8298211;28;19905;-64
2021/09/12 02:30:19;;;;;;;;;;;12.90;99.90;;;;;;8298179;28;20352;-63
2021/09/12 02:34:19;;;;;;;;;;;12.90;99.90;;;;;;8297170;28;19905;-64
2021/09/12 02:38:20;;;;;;;;;;;12.70;99.90;;;;;;8297781;28;20361;-64
2021/09/12 02:42:21;;;;;;;;;;;12.40;99.90;;;;;;8297845;28;19924;-64
2021/09/12 02:46:21;;;;;;;;;;;12.30;99.90;;;;;;8297619;28;19905;-63
2021/09/12 02:50:21;;;;;;;;;;;12.30;99.90;;;;;;8295656;28;19913;-63
2021/09/12 02:54:22;;;;;;;;;;;12.40;99.90;;;;;;8296294;28;19914;-64
2021/09/12 02:58:23;;;;;;;;;;;12.60;99.90;;;;;;8296351;28;19917;-63
2021/09/12 03:02:23;;;;;;;;;;;12.40;99.90;;;;;;8296097;28;19912;-63
2021/09/12 03:06:23;;;;;;;;;;;12.20;99.90;;;;;;8297060;28;19906;-64
2021/09/12 03:10:24;;;;;;;;;;;12.30;99.90;;;;;;8297067;28;19909;-63
2021/09/12 03:14:24;;;;;;;;;;;12.40;99.90;;;;;;8296488;28;19912;-64
2021/09/12 03:18:25;;;;;;;;;;;12.30;99.90;;;;;;8295360;28;19909;-64
2021/09/12 03:22:25;;;;;;;;;;;12.40;99.90;;;;;;8296553;28;19913;-64
2021/09/12 03:26:26;;;;;;;;;;;12.40;99.90;;;;;;8295651;28;19913;-64
2021/09/12 03:30:27;;;;;;;;;;;12.40;99.90;;;;;;8319297;23;20052;-63
2021/09/12 03:34:27;;;;;;;;;;;12.40;99.90;;;;;;8294298;28;19913;-63
2021/09/12 03:38:28;;;;;;;;;;;12.60;99.90;;;;;;8296041;28;19988;-63
2021/09/12 03:42:28;;;;;;;;;;;12.20;99.90;;;;;;8295169;28;19959;-63
2021/09/12 03:46:28;;;;;;;;;;;12.10;99.90;;;;;;8295479;28;19905;-63
2021/09/12 03:50:29;;;;;;;;;;;12.40;99.90;;;;;;8295447;28;19906;-63
2021/09/12 03:54:30;;;;;;;;;;;12.50;99.90;;;;;;8295147;28;19905;-63
2021/09/12 03:58:30;;;;;;;;;;;12.30;99.90;;;;;;8295161;28;19905;-63
2021/09/12 04:02:31;;;;;;;;;;;12.40;99.90;;;;;;8277712;28;20305;-63
2021/09/12 04:06:31;;;;;;;;;;;12.10;99.90;;;;;;8295130;28;19959;-63
2021/09/12 04:10:31;;;;;;;;;;;12.50;99.90;;;;;;8295295;28;19909;-63
2021/09/12 04:14:32;;;;;;;;;;;12.30;99.90;;;;;;8294623;28;19952;-63
2021/09/12 04:18:32;;;;;;;;;;;12.30;99.90;;;;;;8294775;28;20565;-63
2021/09/12 04:22:34;;;;;;;;;;;12.40;99.90;;;;;;8294715;28;19913;-64
2021/09/12 04:26:34;;;;;;;;;;;12.30;99.90;;;;;;8276686;28;20377;-63
2021/09/12 04:30:35;;;;;;;;;;;12.30;99.90;;;;;;8293844;28;19916;-63
2021/09/12 04:34:35;;;;;;;;;;;12.40;99.90;;;;;;8294106;28;19906;-63
2021/09/12 04:38:35;;;;;;;;;;;12.30;99.90;;;;;;8294307;28;19912;-63
2021/09/12 04:42:36;;;;;;;;;;;12.20;99.90;;;;;;8292777;28;19910;-63
2021/09/12 04:46:36;;;;;;;;;;;12.20;99.90;;;;;;8289115;28;19909;-63
2021/09/12 04:50:37;;;;;;;;;;;12.20;99.90;;;;;;8293419;28;20381;-63
2021/09/12 04:54:37;;;;;;;;;;;12.10;99.90;;;;;;8293623;28;19913;-63
2021/09/12 04:58:38;;;;;;;;;;;12.10;99.90;;;;;;8293750;28;19912;-63
2021/09/12 05:02:38;;;;;;;;;;;12.00;99.90;;;;;;8292401;28;19918;-63
2021/09/12 05:06:39;;;;;;;;;;;12.10;99.90;;;;;;8275976;28;19905;-63
2021/09/12 05:10:40;;;;;;;;;;;12.10;99.90;;;;;;8293699;28;19909;-63
2021/09/12 05:14:40;;;;;;;;;;;12.00;99.90;;;;;;8293438;28;19952;-63
2021/09/12 05:18:41;;;;;;;;;;;12.00;99.90;;;;;;8293593;28;19912;-63
2021/09/12 05:22:41;;;;;;;;;;;12.00;99.90;;;;;;8293444;28;19909;-63
2021/09/12 05:26:42;;;;;;;;;;;12.00;99.90;;;;;;8293108;28;20389;-63
2021/09/12 05:30:42;;;;;;;;;;;12.30;99.90;;;;;;8293355;28;19917;-63
2021/09/12 05:34:43;;;;;;;;;;;12.40;99.90;;;;;;8292425;28;20430;-63
2021/09/12 05:38:43;;;;;;;;;;;12.40;99.90;;;;;;8275716;28;19912;-63
2021/09/12 05:42:44;;;;;;;;;;;12.60;99.90;;;;;;8292547;28;20405;-63
2021/09/12 05:46:47;;;;;;;;;;;12.80;99.90;;;;;;8293014;28;19905;-63
2021/09/12 05:50:47;;;;;;;;;;;12.80;99.90;;;;;;8292517;28;19953;-63
2021/09/12 05:54:48;;;;;;;;;;;12.90;99.90;;;;;;8292384;28;19917;-63
2021/09/12 05:58:48;;;;;;;;;;;13.10;99.90;;;;;;8297948;28;19909;-63
2021/09/12 06:02:49;;;;;;;;;;;13.30;99.90;;;;;;8297559;28;19913;-63
2021/09/12 06:06:50;;;;;;;;;;;13.40;99.90;;;;;;8279537;28;19921;-63
2021/09/12 06:10:51;;;;;;;;;;;13.60;99.90;;;;;;8297950;28;19921;-63
2021/09/12 06:14:51;;;;;;;;;;;13.70;99.90;;;;;;8279643;28;19960;-63
2021/09/12 06:18:52;;;;;;;;;;;13.80;99.90;;;;;;8295977;28;19909;-63
2021/09/12 06:22:53;;;;;;;;;;;13.90;99.90;;;;;;8297507;28;19917;-64
2021/09/12 06:26:54;;;;;;;;;;;14.20;99.90;;;;;;8297361;28;19912;-63
2021/09/12 06:30:54;;;;;;;;;;;14.40;99.90;;;;;;8297023;28;20441;-63
2021/09/12 06:34:55;;;;;;;;;;;14.50;99.90;;;;;;8279569;28;19909;-64
2021/09/12 06:38:55;;;;;;;;;;;14.50;99.90;;;;;;8297134;28;19905;-63
2021/09/12 06:42:57;;;;;;;;;;;14.80;99.90;;;;;;8297560;28;19909;-64
2021/09/12 06:46:57;;;;;;;;;;;15.00;99.90;;;;;;8297702;28;19916;-63
2021/09/12 06:50:58;;;;;;;;;;;15.20;99.90;;;;;;8279880;28;19912;-64
2021/09/12 06:54:58;;;;;;;;;;;15.40;99.90;;;;;;8297123;28;19905;-64
2021/09/12 06:58:59;;;;;;;;;;;15.60;99.90;;;;;;8297343;28;19913;-64
2021/09/12 07:02:59;;;;;;;;;;;15.90;99.90;;;;;;8297033;28;19913;-64
2021/09/12 07:07:00;;;;;;;;;;;16.20;99.90;;;;;;8278812;28;19910;-64
2021/09/12 07:11:00;;;;;;;;;;;16.60;99.90;;;;;;8295272;28;19914;-64
2021/09/12 07:15:01;;;;;;;;;;;17.00;99.90;;;;;;8295038;28;20009;-64
2021/09/12 07:19:07;;;;;;;;;;;17.20;99.90;;;;;;8294767;28;19933;-64
2021/09/12 07:23:08;;;;;;;;;;;17.50;99.90;;;;;;8295026;28;19996;-64
2021/09/12 07:27:08;;;;;;;;;;;17.80;99.90;;;;;;8295280;28;19909;-64
2021/09/12 07:31:09;;;;;;;;;;;17.80;99.90;;;;;;8295351;28;19993;-64
2021/09/12 07:35:09;;;;;;;;;;;18.30;99.90;;;;;;8293883;28;19910;-64
2021/09/12 07:39:10;;;;;;;;;;;18.80;99.90;;;;;;8293936;28;19936;-64
2021/09/12 07:43:10;;;;;;;;;;;18.90;99.90;;;;;;8292938;28;20301;-64
2021/09/12 07:47:11;;;;;;;;;;;19.30;99.90;;;;;;8294072;28;19913;-64
2021/09/12 07:51:11;;;;;;;;;;;19.40;99.90;;;;;;8294178;28;19936;-64
2021/09/12 07:55:13;;;;;;;;;;;19.70;99.90;;;;;;8294497;28;19909;-64
2021/09/12 07:59:13;;;;;;;;;;;19.80;99.90;;;;;;8294360;28;19909;-64
2021/09/12 08:03:14;;;;;;;;;;;19.50;99.90;;;;;;8295107;28;19912;-64
2021/09/12 08:07:14;;;;;;;;;;;19.70;99.90;;;;;;8294314;28;19906;-64
2021/09/12 08:11:15;;;;;;;;;;;20.10;99.90;;;;;;8294094;28;19913;-64
2021/09/12 08:15:16;;;;;;;;;;;20.30;99.90;;;;;;8294249;28;20271;-64
2021/09/12 08:19:16;;;;;;;;;;;20.40;99.90;;;;;;8293588;28;19912;-64
2021/09/12 08:23:17;;;;;;;;;;;20.60;99.90;;;;;;8276344;28;19968;-64
2021/09/12 08:27:17;;;;;;;;;;;20.40;99.90;;;;;;8293698;28;19910;-64
2021/09/12 08:31:18;;;;;;;;;;;20.20;99.90;;;;;;8293431;28;19913;-64
2021/09/12 08:35:18;;;;;;;;;;;20.20;99.90;;;;;;8294183;28;19912;-64
2021/09/12 08:39:19;;;;;;;;;;;20.40;99.90;;;;;;8294340;28;20000;-64
2021/09/12 08:43:20;;;;;;;;;;;20.40;99.90;;;;;;8276792;28;19909;-64
2021/09/12 08:47:20;;;;;;;;;;;20.60;99.90;;;;;;8293864;28;19968;-64
2021/09/12 08:51:23;;;;;;;;;;;20.80;99.90;;;;;;8293912;28;19956;-64
2021/09/12 08:55:24;;;;;;;;;;;20.80;99.90;;;;;;8292932;28;19913;-64
2021/09/12 08:59:28;;;;;;;;;;;21.10;99.90;;;;;;8293449;28;19912;-64
2021/09/12 09:03:36;;;;;;;;;;;21.00;99.90;;;;;;8275790;28;20012;-64
2021/09/12 09:07:36;;;;;;;;;;;21.20;99.90;;;;;;8291393;28;19939;-64
2021/09/12 09:11:39;;;;;;;;;;;21.30;99.90;;;;;;8293796;28;20377;-64
2021/09/12 09:15:40;;;;;;;;;;;21.30;99.90;;;;;;8293692;28;20533;-64
2021/09/12 09:19:50;;;;;;;;;;;21.60;99.90;;;;;;8293554;28;19917;-64
2021/09/12 09:24:04;;;;;;;;;;;21.90;99.90;;;;;;8292988;28;20436;-64
2021/09/12 09:28:06;;;;;;;;;;;22.30;99.90;;;;;;8293307;28;20447;-64
2021/09/12 09:32:11;;;;;;;;;;;22.90;99.90;;;;;;8358464;23;19921;-64
2021/09/12 09:36:15;;;;;;;;;;;23.30;99.90;;;;;;8364364;28;20369;-64
2021/09/12 09:40:15;;;;;;;;;;;23.80;99.90;;;;;;8364437;28;20312;-66
2021/09/12 09:44:22;;;;;;;;;;;24.00;99.90;;;;;;8342064;28;19916;-64
2021/09/12 09:48:30;;;;;;;;;;;24.30;99.90;;;;;;8355720;28;19908;-64
2021/09/12 09:52:35;;;;;;;;;;;24.30;99.90;;;;;;8365208;28;19927;-64
2021/09/12 09:56:35;;;;;;;;;;;24.40;99.90;;;;;;8361823;28;19916;-64
2021/09/12 10:00:36;;;;;;;;;;;25.00;99.90;;;;;;8362077;28;20369;-64
2021/09/12 10:04:38;;;;;;;;;;;25.50;99.90;;;;;;8359824;28;19924;-64
2021/09/12 10:08:38;;;;;;;;;;;25.80;99.90;;;;;;8336344;28;19905;-64
2021/09/12 10:12:44;;;;;;;;;;;25.70;99.90;;;;;;8331642;28;19905;-64
2021/09/12 10:16:46;;;;;;;;;;;25.90;99.90;;;;;;8331384;28;20296;-64
2021/09/12 10:20:46;;;;;;;;;;;25.90;99.90;;;;;;8330945;28;20278;-64
2021/09/12 10:25:06;;;;;;;;;;;25.20;99.90;;;;;;8356106;28;19908;-64
2021/09/12 10:29:26;;;;;;;;;;;25.20;99.90;;;;;;8333017;28;19962;-64
2021/09/12 10:33:27;;;;;;;;;;;25.20;99.90;;;;;;8344927;28;19939;-64
2021/09/12 10:37:31;;;;;;;;;;;25.50;99.90;;;;;;8339196;28;20361;-64
2021/09/12 10:41:31;;;;;;;;;;;25.30;99.90;;;;;;8345909;28;19931;-64
2021/09/12 10:45:32;;;;;;;;;;;25.30;99.90;;;;;;8351414;28;19988;-63
2021/09/12 10:49:32;;;;;;;;;;;25.10;99.90;;;;;;8335589;28;19913;-64
2021/09/12 10:53:45;;;;;;;;;;;24.90;99.90;;;;;;8353389;28;19920;-64
2021/09/12 10:57:45;;;;;;;;;;;26.20;99.90;;;;;;8354018;28;20299;-64
2021/09/12 11:01:48;;;;;;;;;;;29.60;99.90;;;;;;8314818;28;19956;-65
2021/09/12 11:05:49;;;;;;;;;;;31.30;98.10;;;;;;8329752;28;20288;-64
2021/09/12 11:09:49;;;;;;;;;;;32.80;96.20;;;;;;8345418;28;19909;-65
2021/09/12 11:13:51;;;;;;;;;;;35.50;76.80;;;;;;8362747;28;19944;-65
2021/09/12 11:17:52;;;;;;;;;;;37.60;68.20;;;;;;8355958;28;20332;-65
2021/09/12 11:21:53;;;;;;;;;;;39.00;56.00;;;;;;8352088;28;19912;-65
2021/09/12 11:25:57;;;;;;;;;;;39.50;53.10;;;;;;8342741;28;19904;-64
2021/09/12 11:29:57;;;;;;;;;;;38.10;51.50;;;;;;8344441;28;20018;-65
2021/09/12 11:33:58;;;;;;;;;;;37.20;54.60;;;;;;8344546;28;19943;-65
2021/09/12 11:38:09;;;;;;;;;;;39.10;52.40;;;;;;8344657;28;19912;-64
2021/09/12 11:42:11;;;;;;;;;;;37.60;51.20;;;;;;8344858;28;19947;-65
2021/09/12 11:46:14;;;;;;;;;;;33.90;58.30;;;;;;8344717;28;19932;-64
2021/09/12 11:50:16;;;;;;;;;;;31.80;64.80;;;;;;8344856;28;20034;-64
2021/09/12 11:54:17;;;;;;;;;;;30.20;70.90;;;;;;8340069;28;20361;-64
2021/09/12 11:58:19;;;;;;;;;;;28.30;76.30;;;;;;8327655;28;19958;-64
2021/09/12 12:02:24;;;;;;;;;;;28.00;83.20;;;;;;8340299;28;20312;-64
2021/09/12 12:06:24;;;;;;;;;;;28.00;82.90;;;;;;8325515;28;19931;-64
2021/09/12 12:10:32;;;;;;;;;;;27.80;84.30;;;;;;8343818;28;20479;-64
2021/09/12 12:14:33;;;;;;;;;;;27.70;86.20;;;;;;8341580;28;20377;-64
2021/09/12 12:18:34;;;;;;;;;;;27.30;87.80;;;;;;8325526;28;19954;-64
2021/09/12 12:22:35;;;;;;;;;;;27.20;89.90;;;;;;8325634;28;19909;-64
2021/09/12 12:26:40;;;;;;;;;;;26.70;90.10;;;;;;8342715;28;20369;-64
2021/09/12 12:30:41;;;;;;;;;;;26.70;90.40;;;;;;8323542;28;19905;-64
2021/09/12 12:34:56;;;;;;;;;;;26.90;91.40;;;;;;8342376;28;19944;-64
2021/09/12 12:39:11;;;;;;;;;;;27.20;90.30;;;;;;8324860;28;19904;-64
2021/09/12 12:43:12;;;;;;;;;;;29.60;83.80;;;;;;8336087;28;19916;-64
2021/09/12 12:47:27;;;;;;;;;;;33.90;66.40;;;;;;8343525;28;19916;-64
2021/09/12 12:51:27;;;;;;;;;;;37.00;55.80;;;;;;8339777;28;20258;-64
2021/09/12 12:55:28;;;;;;;;;;;35.00;57.90;;;;;;8341417;28;19995;-64
2021/09/12 12:59:28;;;;;;;;;;;32.70;62.70;;;;;;8342144;28;19904;-64
2021/09/12 13:03:29;;;;;;;;;;;31.10;65.70;;;;;;8323660;28;20285;-64
2021/09/12 13:07:29;;;;;;;;;;;31.90;63.30;;;;;;8340406;28;20368;-64
2021/09/12 13:11:32;;;;;;;;;;;34.10;62.20;;;;;;8346088;28;19970;-64
2021/09/12 13:15:32;;;;;;;;;;;37.60;54.90;;;;;;8324310;28;19912;-65
2021/09/12 13:19:33;;;;;;;;;;;40.80;49.50;;;;;;8335760;28;19909;-64
2021/09/12 13:23:33;;;;;;;;;;;41.70;46.80;;;;;;8342008;28;19919;-65
2021/09/12 13:27:34;;;;;;;;;;;41.60;44.30;;;;;;8341882;28;19909;-65
2021/09/12 13:31:34;;;;;;;;;;;39.40;45.30;;;;;;8333075;28;19927;-63
2021/09/12 13:35:35;;;;;;;;;;;33.30;56.30;;;;;;8341517;28;19909;-64
2021/09/12 13:39:35;;;;;;;;;;;30.60;62.50;;;;;;8341680;28;19912;-64
2021/09/12 13:43:36;;;;;;;;;;;29.30;67.90;;;;;;8341482;28;19909;-64
2021/09/12 13:47:36;;;;;;;;;;;29.40;69.50;;;;;;8341426;28;20422;-64
2021/09/12 13:51:37;;;;;;;;;;;34.90;58.10;;;;;;8341605;28;20093;-65
2021/09/12 13:55:37;;;;;;;;;;;39.50;48.20;;;;;;8357131;28;19924;-64
2021/09/12 13:59:38;;;;;;;;;;;38.80;47.00;;;;;;8341187;28;19920;-64
2021/09/12 14:03:38;;;;;;;;;;;39.30;46.80;;;;;;8341369;28;19987;-64
2021/09/12 14:07:38;;;;;;;;;;;40.30;43.70;;;;;;8341189;28;19916;-65
2021/09/12 14:11:39;;;;;;;;;;;39.60;45.50;;;;;;8341327;28;19908;-64
2021/09/12 14:15:39;;;;;;;;;;;40.70;42.40;;;;;;8341097;28;20300;-64
2021/09/12 14:19:40;;;;;;;;;;;40.50;42.40;;;;;;8346310;28;19915;-64
2021/09/12 14:23:40;;;;;;;;;;;41.30;39.90;;;;;;8344345;28;20374;-65
2021/09/12 14:27:41;;;;;;;;;;;41.90;40.70;;;;;;8348043;28;19909;-64
2021/09/12 14:31:41;;;;;;;;;;;42.10;39.30;;;;;;8337185;28;19913;-64
2021/09/12 14:35:42;;;;;;;;;;;40.80;40.20;;;;;;8331084;28;19909;-64
2021/09/12 14:39:42;;;;;;;;;;;37.10;46.20;;;;;;8349124;28;19921;-64
2021/09/12 14:43:43;;;;;;;;;;;33.50;52.00;;;;;;8357023;28;20348;-64
2021/09/12 14:47:44;;;;;;;;;;;31.80;57.70;;;;;;8363276;28;19927;-64
2021/09/12 14:51:44;;;;;;;;;;;30.90;60.30;;;;;;8342724;28;19959;-64
2021/09/12 14:55:45;;;;;;;;;;;30.80;61.90;;;;;;8330090;28;19905;-64
2021/09/12 14:59:45;;;;;;;;;;;34.50;56.40;;;;;;8328799;28;19916;-65
2021/09/12 15:03:46;;;;;;;;;;;38.50;49.30;;;;;;8342956;28;19913;-64
2021/09/12 15:07:46;;;;;;;;;;;40.60;44.80;;;;;;8357152;28;19963;-65
2021/09/12 15:11:47;;;;;;;;;;;41.50;43.30;;;;;;8312176;28;20335;-65
2021/09/12 15:15:47;;;;;;;;;;;42.10;41.90;;;;;;8328561;28;19995;-65
2021/09/12 15:19:49;;;;;;;;;;;41.80;41.40;;;;;;8337949;28;19917;-65
2021/09/12 15:23:50;;;;;;;;;;;40.50;42.80;;;;;;8326945;28;19905;-65
2021/09/12 15:27:52;;;;;;;;;;;38.80;44.30;;;;;;8346077;28;19999;-65
2021/09/12 15:31:52;;;;;;;;;;;38.40;45.50;;;;;;8370229;23;19921;-65
2021/09/12 15:35:54;;;;;;;;;;;38.30;44.70;;;;;;8292494;28;20199;-65
2021/09/12 15:39:54;;;;;;;;;;;38.10;44.40;;;;;;8290781;28;19967;-65
2021/09/12 15:43:56;;;;;;;;;;;38.10;44.50;;;;;;8292316;28;20316;-65
2021/09/12 15:47:57;;;;;;;;;;;37.40;45.00;;;;;;8292586;28;19952;-65
2021/09/12 15:51:57;;;;;;;;;;;37.00;46.70;;;;;;8294252;28;20322;-65
2021/09/12 15:55:58;;;;;;;;;;;37.20;46.20;;;;;;8295512;28;19951;-65
2021/09/12 15:59:58;;;;;;;;;;;37.60;44.30;;;;;;8295621;28;19913;-65
2021/09/12 16:03:59;;;;;;;;;;;37.30;45.30;;;;;;8277887;28;19905;-65
2021/09/12 16:07:59;;;;;;;;;;;37.30;45.40;;;;;;8295332;28;19913;-64
2021/09/12 16:11:59;;;;;;;;;;;36.70;46.30;;;;;;8295264;28;19905;-65
2021/09/12 16:16:00;;;;;;;;;;;36.10;48.70;;;;;;8294914;28;19912;-65
2021/09/12 16:20:00;;;;;;;;;;;34.80;50.70;;;;;;8294924;28;19913;-65
2021/09/12 16:24:01;;;;;;;;;;;33.30;53.10;;;;;;8295004;28;19912;-65
2021/09/12 16:28:01;;;;;;;;;;;32.90;53.70;;;;;;8294842;28;19905;-65
2021/09/12 16:32:02;;;;;;;;;;;33.80;52.10;;;;;;8294765;28;19913;-65
2021/09/12 16:36:03;;;;;;;;;;;33.70;52.60;;;;;;8276771;28;19905;-65
2021/09/12 16:40:05;;;;;;;;;;;34.30;51.20;;;;;;8293152;28;20328;-65
2021/09/12 16:44:07;;;;;;;;;;;34.10;51.60;;;;;;8293986;28;20098;-65
2021/09/12 16:48:07;;;;;;;;;;;32.50;53.90;;;;;;8294263;28;19909;-64
2021/09/12 16:52:08;;;;;;;;;;;30.00;59.40;;;;;;8294288;28;20276;-64
2021/09/12 16:56:08;;;;;;;;;;;27.40;67.50;;;;;;8293769;28;19906;-64
2021/09/12 17:00:09;;;;;;;;;;;25.50;77.80;;;;;;8294019;28;19917;-64
2021/09/12 17:04:10;;;;;;;;;;;24.10;84.00;;;;;;8293820;28;19905;-64
2021/09/12 17:08:10;;;;;;;;;;;23.60;88.50;;;;;;8293756;28;19906;-64
2021/09/12 17:12:11;;;;;;;;;;;23.40;91.30;;;;;;8294328;28;19914;-64
2021/09/12 17:16:11;;;;;;;;;;;23.10;93.70;;;;;;8293675;28;19960;-64
2021/09/12 17:20:12;;;;;;;;;;;22.60;98.10;;;;;;8293620;28;19952;-64
2021/09/12 17:24:12;;;;;;;;;;;22.30;99.90;;;;;;8293445;28;19994;-64
2021/09/12 17:28:14;;;;;;;;;;;22.20;99.90;;;;;;8293701;28;19905;-64
2021/09/12 17:32:15;;;;;;;;;;;21.80;99.90;;;;;;8293556;28;19936;-64
2021/09/12 17:36:15;;;;;;;;;;;21.50;99.90;;;;;;8293344;28;20009;-64
2021/09/12 17:40:15;;;;;;;;;;;21.40;99.90;;;;;;8293310;28;19913;-64
2021/09/12 17:44:16;;;;;;;;;;;21.00;99.90;;;;;;8293065;28;19909;-64
2021/09/12 17:48:16;;;;;;;;;;;20.60;99.90;;;;;;8273850;28;19951;-64
2021/09/12 17:52:17;;;;;;;;;;;20.70;99.90;;;;;;8291870;28;20000;-64
2021/09/12 17:56:18;;;;;;;;;;;20.80;99.90;;;;;;8296114;28;19905;-64
2021/09/12 18:00:18;;;;;;;;;;;20.70;99.90;;;;;;8296392;28;19916;-65
2021/09/12 18:04:18;;;;;;;;;;;20.50;99.90;;;;;;8295704;28;19910;-64
2021/09/12 18:08:19;;;;;;;;;;;20.20;99.90;;;;;;8273288;28;19910;-64
2021/09/12 18:12:19;;;;;;;;;;;20.10;99.90;;;;;;8288770;28;19921;-63
2021/09/12 18:16:20;;;;;;;;;;;20.30;99.90;;;;;;8274457;28;19913;-64
2021/09/12 18:20:21;;;;;;;;;;;20.10;99.90;;;;;;8293626;28;19916;-64
2021/09/12 18:24:21;;;;;;;;;;;19.90;99.90;;;;;;8294395;28;19910;-64
2021/09/12 18:28:22;;;;;;;;;;;19.70;99.90;;;;;;8276123;28;19912;-64
2021/09/12 18:32:22;;;;;;;;;;;19.50;99.90;;;;;;8289635;28;20008;-64
2021/09/12 18:36:23;;;;;;;;;;;19.40;99.90;;;;;;8292483;28;20282;-64
2021/09/12 18:40:23;;;;;;;;;;;19.30;99.90;;;;;;8292941;28;20378;-64
2021/09/12 18:44:24;;;;;;;;;;;19.20;99.90;;;;;;8291607;28;19916;-63
2021/09/12 18:48:24;;;;;;;;;;;19.00;99.90;;;;;;8290736;28;20297;-64
2021/09/12 18:52:25;;;;;;;;;;;18.60;99.90;;;;;;8274210;28;19909;-64
2021/09/12 18:56:26;;;;;;;;;;;18.40;99.90;;;;;;8292893;28;20008;-64
2021/09/12 19:00:26;;;;;;;;;;;18.30;99.90;;;;;;8293778;28;19970;-64
2021/09/12 19:04:27;;;;;;;;;;;18.10;99.90;;;;;;8275516;28;19906;-64
2021/09/12 19:08:28;;;;;;;;;;;17.90;99.90;;;;;;8293462;28;19905;-63
2021/09/12 19:12:28;;;;;;;;;;;17.80;99.90;;;;;;8292353;28;19909;-64
2021/09/12 19:16:29;;;;;;;;;;;17.70;99.90;;;;;;8292805;28;19963;-63
2021/09/12 19:20:29;;;;;;;;;;;18.10;99.90;;;;;;8292968;28;19920;-64
2021/09/12 19:24:30;;;;;;;;;;;17.70;99.90;;;;;;8273925;28;19909;-64
2021/09/12 19:28:30;;;;;;;;;;;17.60;99.90;;;;;;8275380;28;19955;-64
2021/09/12 19:32:31;;;;;;;;;;;17.40;99.90;;;;;;8292710;28;19913;-64
2021/09/12 19:36:32;;;;;;;;;;;17.10;99.90;;;;;;8292174;28;19910;-64
2021/09/12 19:40:32;;;;;;;;;;;16.90;99.90;;;;;;8292436;28;19979;-63
2021/09/12 19:44:33;;;;;;;;;;;17.00;99.90;;;;;;8289587;28;19911;-64
2021/09/12 19:48:33;;;;;;;;;;;17.00;99.90;;;;;;8292986;28;19905;-64
2021/09/12 19:52:34;;;;;;;;;;;16.80;99.90;;;;;;8291515;28;20014;-64
2021/09/12 19:56:34;;;;;;;;;;;16.60;99.90;;;;;;8291382;28;19910;-64
2021/09/12 20:00:35;;;;;;;;;;;16.40;99.90;;;;;;8290563;28;19917;-64
2021/09/12 20:04:35;;;;;;;;;;;16.20;99.90;;;;;;8290753;28;19921;-63
2021/09/12 20:08:36;;;;;;;;;;;16.20;99.90;;;;;;8285891;28;19920;-64
2021/09/12 20:12:37;;;;;;;;;;;16.40;99.90;;;;;;8291920;28;20039;-63
2021/09/12 20:16:38;;;;;;;;;;;16.20;99.90;;;;;;8275989;28;19913;-63
2021/09/12 20:20:38;;;;;;;;;;;16.10;99.90;;;;;;8275950;28;19920;-63
2021/09/12 20:24:41;;;;;;;;;;;15.90;99.90;;;;;;8293691;28;19905;-63
2021/09/12 20:28:41;;;;;;;;;;;15.80;99.90;;;;;;8294609;28;20270;-63
2021/09/12 20:32:43;;;;;;;;;;;15.70;99.90;;;;;;8294965;28;19944;-63
2021/09/12 20:36:43;;;;;;;;;;;15.50;99.90;;;;;;8294506;28;19912;-63
2021/09/12 20:40:44;;;;;;;;;;;15.40;99.90;;;;;;8294365;28;19913;-63
2021/09/12 20:44:44;;;;;;;;;;;15.30;99.90;;;;;;8284941;28;19913;-64
2021/09/12 20:48:45;;;;;;;;;;;15.20;99.90;;;;;;8293357;28;19906;-63
2021/09/12 20:52:45;;;;;;;;;;;15.40;99.90;;;;;;8291364;28;20004;-63
2021/09/12 20:56:46;;;;;;;;;;;15.40;99.90;;;;;;8294549;28;19959;-63
2021/09/12 21:00:46;;;;;;;;;;;15.20;99.90;;;;;;8294019;28;19924;-63
2021/09/12 21:04:46;;;;;;;;;;;15.00;99.90;;;;;;8273972;28;19913;-63
2021/09/12 21:08:47;;;;;;;;;;;15.10;99.90;;;;;;8294220;28;19917;-63
2021/09/12 21:12:47;;;;;;;;;;;15.00;99.90;;;;;;8276353;28;19932;-63
2021/09/12 21:16:48;;;;;;;;;;;15.20;99.90;;;;;;8276142;28;19909;-63
2021/09/12 21:20:48;;;;;;;;;;;14.80;99.90;;;;;;8293098;28;20028;-63
2021/09/12 21:24:49;;;;;;;;;;;14.90;99.90;;;;;;8293664;28;20404;-63
2021/09/12 21:28:49;;;;;;;;;;;14.90;99.90;;;;;;8300543;28;19905;-63
2021/09/12 21:32:50;;;;;;;;;;;14.70;99.90;;;;;;8300243;28;19914;-63
2021/09/12 21:36:50;;;;;;;;;;;14.50;99.90;;;;;;8300146;28;19996;-63
2021/09/12 21:40:51;;;;;;;;;;;14.30;99.90;;;;;;8281966;28;19917;-63
2021/09/12 21:44:51;;;;;;;;;;;;;;;;;;8282017;28;19913;-63
2021/09/12 21:48:52;;;;;;;;;;;15.40;99.90;;;;;;8299680;28;19913;-63
2021/09/12 21:52:52;;;;;;;;;;;14.50;99.90;;;;;;8299691;28;19929;-63
2021/09/12 21:56:53;;;;;;;;;;;14.10;99.90;;;;;;8299417;28;19909;-63
2021/09/12 22:00:53;;;;;;;;;;;14.00;99.90;;;;;;8281263;28;19913;-63
2021/09/12 22:04:54;;;;;;;;;;;13.90;99.90;;;;;;8297776;28;20348;-63
2021/09/12 22:08:54;;;;;;;;;;;14.30;99.90;;;;;;8298141;28;19945;-63
2021/09/12 22:12:55;;;;;;;;;;;14.40;99.90;;;;;;8280304;28;19912;-63
2021/09/12 22:16:55;;;;;;;;;;;14.20;99.90;;;;;;8298643;28;20390;-63
2021/09/12 22:20:56;;;;;;;;;;;14.10;99.90;;;;;;8298280;28;19957;-63
2021/09/12 22:24:56;;;;;;;;;;;13.90;99.90;;;;;;8298238;28;19915;-63
2021/09/12 22:28:57;;;;;;;;;;;13.90;99.90;;;;;;8298718;28;19905;-63
2021/09/12 22:32:57;;;;;;;;;;;13.90;99.90;;;;;;8298213;28;19917;-63
2021/09/12 22:36:58;;;;;;;;;;;13.70;99.90;;;;;;8297367;28;19949;-63
2021/09/12 22:40:59;;;;;;;;;;;13.70;99.90;;;;;;8298219;28;19917;-63
2021/09/12 22:44:59;;;;;;;;;;;13.60;99.90;;;;;;8297775;28;19951;-63
2021/09/12 22:49:00;;;;;;;;;;;13.50;99.90;;;;;;8297707;28;19948;-63
2021/09/12 22:53:00;;;;;;;;;;;13.30;99.90;;;;;;8297001;28;20580;-63
2021/09/12 22:57:00;;;;;;;;;;;13.50;99.90;;;;;;8297631;28;19906;-63
2021/09/12 23:01:01;;;;;;;;;;;13.50;99.90;;;;;;8297568;28;19963;-63
2021/09/12 23:05:01;;;;;;;;;;;13.50;99.90;;;;;;8297083;28;19912;-63
2021/09/12 23:09:02;;;;;;;;;;;13.50;99.90;;;;;;8280005;28;20378;-63
2021/09/12 23:13:03;;;;;;;;;;;13.20;99.90;;;;;;8297275;28;19912;-63
2021/09/12 23:17:04;;;;;;;;;;;13.00;99.90;;;;;;8296993;28;20293;-63
2021/09/12 23:21:04;;;;;;;;;;;13.00;99.90;;;;;;8296848;28;19964;-63
2021/09/12 23:25:05;;;;;;;;;;;13.00;99.90;;;;;;8296500;28;19913;-63